Time;durP1;ratioP1;P1;durP2;ratioP2;P2;SDS_P1;SDS_P2;PMS_P1;PMS_P2;Temp;Humidity;BMP_temperature;BMP_pressure;BME280_temperature;BME280_humidity;BME280_pressure;Samples;Min_cycle;Max_cycle;Signal;HPM_P1;HPM_P2
2022/06/28 00:01:54;;;;;;;11.32;6.35;;;;;;;13.25;99.05;101967.66;5030150;28;20036;-67
2022/06/28 00:04:20;;;;;;;11.45;6.90;;;;;;;13.24;99.69;101966.00;5030256;28;20476;-67
2022/06/28 00:06:47;;;;;;;9.85;6.40;;;;;;;13.22;99.65;101968.03;5030279;28;20034;-67
2022/06/28 00:09:14;;;;;;;10.77;5.72;;;;;;;13.18;99.73;101966.75;5030250;28;20029;-68
2022/06/28 00:11:40;;;;;;;9.40;5.45;;;;;;;13.15;99.92;101973.28;5029954;28;20021;-68
2022/06/28 00:16:04;;;;;;;9.35;5.35;;;;;;;13.08;99.18;101970.53;5029207;28;20040;-67
2022/06/28 00:16:51;;;;;;;7.35;5.25;;;;;;;13.04;99.04;101966.56;5029940;28;20049;-67
2022/06/28 00:19:16;;;;;;;11.35;6.78;;;;;;;13.00;99.48;101972.50;5029869;28;20124;-67
2022/06/28 00:21:42;;;;;;;10.50;6.70;;;;;;;12.98;99.46;101967.31;5029855;28;20104;-68
2022/06/28 00:24:08;;;;;;;9.93;5.88;;;;;;;12.97;99.47;101973.69;5029913;28;20029;-68
2022/06/28 00:26:33;;;;;;;7.72;5.75;;;;;;;12.94;99.46;101974.91;5029011;28;20033;-68
2022/06/28 00:28:58;;;;;;;9.10;5.75;;;;;;;12.90;99.67;101975.44;5027560;28;20030;-68
2022/06/28 00:31:25;;;;;;;11.02;6.32;;;;;;;12.85;99.77;101976.00;5029125;28;20116;-68
2022/06/28 00:33:51;;;;;;;10.45;6.80;;;;;;;12.82;100.00;101975.53;5029592;28;20030;-68
2022/06/28 00:36:16;;;;;;;10.13;6.53;;;;;;;12.82;100.00;101972.84;5028952;28;20044;-68
2022/06/28 00:38:42;;;;;;;8.63;5.75;;;;;;;12.79;100.00;101967.88;5029679;28;20400;-68
2022/06/28 00:41:08;;;;;;;11.82;5.97;;;;;;;12.82;100.00;101972.84;5029761;28;20476;-68
2022/06/28 00:43:34;;;;;;;10.43;6.15;;;;;;;12.83;100.00;101967.31;5029581;28;20033;-67
2022/06/28 00:46:00;;;;;;;7.10;5.45;;;;;;;12.80;100.00;101958.81;5029617;28;20124;-67
2022/06/28 00:48:26;;;;;;;9.18;5.65;;;;;;;12.92;100.00;101973.41;5029611;28;20065;-68
2022/06/28 00:50:52;;;;;;;10.00;5.97;;;;;;;12.91;99.87;101974.41;5029453;28;20044;-68
2022/06/28 00:53:19;;;;;;;10.93;5.88;;;;;;;12.91;99.83;101982.44;5029346;28;20069;-68
2022/06/28 00:55:45;;;;;;;8.23;5.10;;;;;;;12.85;99.59;101970.63;5028916;28;20029;-67
2022/06/28 00:58:12;;;;;;;9.75;5.72;;;;;;;12.89;99.59;101989.81;5028285;28;20029;-67
2022/06/28 01:00:43;;;;;;;7.80;5.43;;;;;;;12.86;99.78;101977.66;5029191;28;20048;-67
2022/06/28 01:03:12;;;;;;;8.20;5.47;;;;;;;12.86;100.00;101982.16;5029362;28;20037;-67
2022/06/28 01:05:40;;;;;;;7.80;5.05;;;;;;;12.83;100.00;101983.38;5029371;28;20116;-67
2022/06/28 01:08:06;;;;;;;9.15;5.97;;;;;;;12.85;99.91;101973.31;5029177;28;20029;-68
2022/06/28 01:10:32;;;;;;;9.70;5.63;;;;;;;12.86;99.84;101979.50;5029217;28;20033;-68
2022/06/28 01:12:58;;;;;;;9.60;5.25;;;;;;;12.85;99.62;101983.19;5029265;28;20507;-68
2022/06/28 01:15:23;;;;;;;8.52;5.15;;;;;;;12.86;99.80;101983.03;5028135;28;20065;-68
2022/06/28 01:17:49;;;;;;;9.30;5.53;;;;;;;12.84;100.00;101987.72;5028875;28;20029;-68
2022/06/28 01:20:14;;;;;;;11.00;6.35;;;;;;;12.83;100.00;101982.53;5029091;28;20129;-68
2022/06/28 01:22:43;;;;;;;11.23;5.90;;;;;;;12.82;100.00;101994.28;5029163;28;20037;-68
2022/06/28 01:25:09;;;;;;;10.27;5.60;;;;;;;12.83;100.00;101995.94;5029152;28;20435;-68
2022/06/28 01:27:36;;;;;;;9.85;6.13;;;;;;;12.82;99.94;101992.44;5027654;28;20046;-68
2022/06/28 01:30:03;;;;;;;10.07;6.00;;;;;;;12.82;99.93;101997.78;5028845;28;20034;-68
2022/06/28 01:32:29;;;;;;;9.90;5.65;;;;;;;12.80;100.00;101990.94;5028630;28;20033;-68
2022/06/28 01:34:54;;;;;;;10.25;5.30;;;;;;;12.80;99.94;101989.09;5028663;28;20025;-68
2022/06/28 01:37:19;;;;;;;9.93;5.50;;;;;;;12.79;100.00;101997.31;5027294;28;20040;-68
2022/06/28 01:39:45;;;;;;;9.18;5.28;;;;;;;12.76;99.95;102003.03;5030784;28;20469;-68
2022/06/28 01:42:10;;;;;;;10.40;6.03;;;;;;;12.66;100.00;101995.28;5033027;28;20040;-68
2022/06/28 01:44:38;;;;;;;8.18;4.68;;;;;;;12.70;100.00;102000.06;5032379;28;20033;-68
2022/06/28 01:47:06;;;;;;;7.13;4.95;;;;;;;12.67;100.00;102003.09;5032884;28;20029;-68
2022/06/28 01:49:31;;;;;;;12.10;5.78;;;;;;;12.66;100.00;102000.63;5032806;28;20033;-68
2022/06/28 01:51:56;;;;;;;12.95;5.90;;;;;;;12.61;99.98;102006.53;5032612;28;20041;-68
2022/06/28 01:54:22;;;;;;;7.68;4.57;;;;;;;12.58;99.92;101996.19;5032582;28;20386;-68
2022/06/28 01:56:47;;;;;;;12.40;6.63;;;;;;;12.54;100.00;101986.00;5032753;28;20139;-67
2022/06/28 01:59:13;;;;;;;8.00;4.68;;;;;;;12.56;100.00;102010.75;5032420;28;20132;-67
2022/06/28 02:01:38;;;;;;;9.77;5.03;;;;;;;12.54;100.00;102015.44;5032380;28;20037;-67
2022/06/28 02:04:20;;;;;;;7.82;5.00;;;;;;;12.54;100.00;102010.09;5032648;28;20032;-67
2022/06/28 02:06:46;;;;;;;9.48;5.47;;;;;;;12.50;100.00;102012.31;5032619;28;20481;-67
2022/06/28 02:09:11;;;;;;;7.13;4.72;;;;;;;12.48;99.97;102014.34;5032502;28;20024;-67
2022/06/28 02:11:37;;;;;;;7.93;5.10;;;;;;;12.47;100.00;102018.84;5032435;28;20025;-67
2022/06/28 02:14:02;;;;;;;7.55;4.95;;;;;;;12.45;100.00;102015.53;5032383;28;20092;-67
2022/06/28 02:16:27;;;;;;;9.43;5.80;;;;;;;12.44;100.00;102018.38;5032183;28;20041;-67
2022/06/28 02:18:53;;;;;;;9.95;5.70;;;;;;;12.43;100.00;102022.91;5031765;28;20040;-67
2022/06/28 02:21:18;;;;;;;5.95;4.53;;;;;;;12.41;100.00;102024.09;5032094;28;20115;-67
2022/06/28 02:23:44;;;;;;;10.95;5.28;;;;;;;12.41;100.00;102024.09;5032253;28;20044;-68
2022/06/28 02:26:11;;;;;;;10.15;5.30;;;;;;;12.40;100.00;102036.63;5032146;28;20026;-67
2022/06/28 02:28:37;;;;;;;9.48;5.25;;;;;;;12.38;100.00;102037.81;5032181;28;20481;-67
2022/06/28 02:31:11;;;;;;;10.10;4.50;;;;;;;12.28;100.00;102027.34;5032103;28;20033;-67
2022/06/28 02:33:37;;;;;;;9.68;5.32;;;;;;;12.33;100.00;102035.69;5030572;28;20033;-67
2022/06/28 02:41:30;;;;;;;8.43;4.55;;;;;;;12.36;99.79;102043.34;5031811;28;21115;-67
2022/06/28 02:43:56;;;;;;;9.65;6.18;;;;;;;12.36;99.83;102043.34;5031762;28;20049;-67
2022/06/28 02:46:22;;;;;;;6.93;4.78;;;;;;;12.35;99.71;102051.56;5032067;28;20030;-67
2022/06/28 02:48:47;;;;;;;9.77;4.60;;;;;;;12.33;99.86;102057.09;5031703;28;20465;-67
2022/06/28 02:51:12;;;;;;;9.80;5.47;;;;;;;12.30;100.00;102056.63;5030436;28;20025;-67
2022/06/28 02:53:38;;;;;;;10.27;4.65;;;;;;;12.27;100.00;102060.47;5031414;28;20491;-67
2022/06/28 02:56:05;;;;;;;10.00;4.97;;;;;;;12.27;100.00;102076.53;5031714;28;20076;-67
2022/06/28 02:58:30;;;;;;;9.20;5.30;;;;;;;12.24;100.00;102077.72;5031492;28;20488;-67
2022/06/28 03:00:56;;;;;;;10.48;5.30;;;;;;;12.24;100.00;102080.41;5031664;28;20034;-67
2022/06/28 03:03:21;;;;;;;8.82;5.30;;;;;;;12.22;100.00;102079.72;5031496;28;20056;-67
2022/06/28 03:05:46;;;;;;;10.02;4.93;;;;;;;12.21;99.77;102082.59;5031576;28;20397;-67
2022/06/28 03:08:12;;;;;;;10.07;5.78;;;;;;;12.21;99.69;102074.56;5031403;28;20033;-67
2022/06/28 03:10:37;;;;;;;10.32;4.78;;;;;;;12.22;99.47;102082.41;5031404;28;20033;-67
2022/06/28 03:13:03;;;;;;;9.75;5.28;;;;;;;12.21;99.41;102075.41;5031308;28;20044;-68
2022/06/28 03:15:28;;;;;;;10.35;4.32;;;;;;;12.23;99.30;102083.22;5030949;28;20083;-67
2022/06/28 03:17:54;;;;;;;10.18;5.03;;;;;;;12.21;99.19;102080.75;5031328;28;20397;-67
2022/06/28 03:20:19;;;;;;;9.25;5.22;;;;;;;12.20;99.20;102084.41;5030416;28;20029;-67
2022/06/28 03:22:45;;;;;;;9.40;5.47;;;;;;;12.21;98.95;102091.44;5031030;28;20030;-67
2022/06/28 03:25:10;;;;;;;10.50;5.50;;;;;;;12.12;99.05;102089.81;5030926;28;20044;-67
2022/06/28 03:27:36;;;;;;;7.22;5.03;;;;;;;12.12;99.32;102092.50;5030866;28;20029;-67
2022/06/28 03:30:03;;;;;;;9.07;5.22;;;;;;;12.11;99.51;102092.69;5030879;28;20031;-67
2022/06/28 03:32:29;;;;;;;7.88;4.47;;;;;;;12.09;99.40;102087.50;5030828;28;20037;-67
2022/06/28 03:34:54;;;;;;;9.18;5.07;;;;;;;12.12;99.18;102097.03;5030823;28;20124;-67
2022/06/28 03:37:20;;;;;;;8.80;4.60;;;;;;;12.07;99.22;102084.16;5030085;28;20040;-67
2022/06/28 03:39:45;;;;;;;10.82;5.38;;;;;;;12.11;99.37;102093.50;5030052;28;20366;-67
2022/06/28 03:42:11;;;;;;;10.32;4.70;;;;;;;12.12;99.29;102102.38;5030680;28;20025;-67
2022/06/28 03:44:36;;;;;;;9.25;4.68;;;;;;;12.12;99.47;102100.53;5030402;28;20465;-67
2022/06/28 03:47:03;;;;;;;7.15;4.60;;;;;;;12.11;99.18;102101.53;5030573;28;20034;-67
2022/06/28 03:49:28;;;;;;;8.90;5.35;;;;;;;12.11;99.09;102095.38;5030091;28;20557;-67
2022/06/28 03:51:53;;;;;;;7.97;4.35;;;;;;;12.12;98.89;102089.00;5029122;28;20037;-67
2022/06/28 03:54:19;;;;;;;13.25;5.25;;;;;;;12.15;98.62;102091.31;5029052;28;20520;-67
2022/06/28 03:56:44;;;;;;;9.73;4.60;;;;;;;12.15;99.05;102100.16;5030485;28;20044;-67
2022/06/28 03:59:10;;;;;;;9.38;4.60;;;;;;;12.16;98.60;102103.69;5030283;28;20033;-67
2022/06/28 04:01:35;;;;;;;6.45;4.30;;;;;;;12.17;98.79;102098.16;5030288;28;20106;-67
2022/06/28 04:04:00;;;;;;;7.50;5.13;;;;;;;12.17;98.74;102108.84;5030339;28;20029;-67
2022/06/28 04:06:26;;;;;;;8.25;3.95;;;;;;;12.14;98.26;102101.19;5030145;28;20568;-67
2022/06/28 04:08:51;;;;;;;10.00;5.07;;;;;;;12.19;98.02;102103.34;5029774;28;20030;-67
2022/06/28 04:11:17;;;;;;;7.18;4.30;;;;;;;12.24;97.70;102109.00;5030197;28;20037;-67
2022/06/28 04:13:45;;;;;;;11.32;5.47;;;;;;;12.22;97.82;102098.44;5029842;28;20025;-67
2022/06/28 04:16:11;;;;;;;9.05;4.72;;;;;;;12.25;97.47;102107.97;5030041;28;20021;-67
2022/06/28 04:18:36;;;;;;;6.85;4.13;;;;;;;12.32;97.20;102106.25;5029875;28;20049;-67
2022/06/28 04:21:02;;;;;;;6.78;4.57;;;;;;;12.38;97.23;102113.56;5029614;28;20029;-67
2022/06/28 04:23:28;;;;;;;11.60;6.15;;;;;;;12.42;96.75;102116.75;5029791;28;20037;-68
2022/06/28 04:25:53;;;;;;;8.68;4.43;;;;;;;12.42;96.73;102117.56;5029898;28;20112;-68
2022/06/28 04:28:19;;;;;;;10.25;4.82;;;;;;;12.43;96.39;102116.53;5029728;28;20033;-64
2022/06/28 04:30:44;;;;;;;10.32;4.45;;;;;;;12.49;96.90;102121.16;5029687;28;20033;-65
2022/06/28 04:33:10;;;;;;;10.93;5.20;;;;;;;12.54;96.30;102117.97;5029596;28;20037;-65
2022/06/28 04:35:35;;;;;;;10.95;5.85;;;;;;;12.56;96.27;102120.47;5029787;28;20029;-64
2022/06/28 04:38:03;;;;;;;10.32;4.28;;;;;;;12.56;95.50;102115.94;5029476;28;20033;-67
2022/06/28 04:40:28;;;;;;;6.93;5.07;;;;;;;12.60;95.20;102114.59;5029350;28;20034;-68
2022/06/28 04:42:54;;;;;;;8.43;4.80;;;;;;;12.66;94.94;102105.00;5029362;28;20036;-68
2022/06/28 04:45:19;;;;;;;8.43;4.10;;;;;;;12.77;94.42;102111.78;5029594;28;20503;-68
2022/06/28 04:47:45;;;;;;;10.18;4.35;;;;;;;12.93;93.41;102103.59;5029651;28;20064;-67
2022/06/28 04:50:10;;;;;;;7.70;4.50;;;;;;;13.02;92.82;102112.38;5029336;28;20168;-67
2022/06/28 04:52:36;;;;;;;9.73;3.90;;;;;;;13.08;92.94;102114.34;5029374;28;20132;-67
2022/06/28 04:55:02;;;;;;;8.38;4.75;;;;;;;13.20;91.95;102115.56;5029411;28;20033;-67
2022/06/28 04:57:28;;;;;;;9.00;4.20;;;;;;;13.30;91.46;102118.84;5029321;28;20064;-67
2022/06/28 04:59:54;;;;;;;6.35;4.50;;;;;;;13.29;91.68;102125.22;5029342;28;20496;-67
2022/06/28 05:02:19;;;;;;;8.20;4.88;;;;;;;13.27;91.59;102113.03;5029227;28;20037;-68
2022/06/28 05:04:44;;;;;;;8.77;4.25;;;;;;;13.25;91.50;102113.16;5029223;28;20055;-68
2022/06/28 05:07:10;;;;;;;6.00;4.05;;;;;;;13.26;91.87;102114.88;5029302;28;20052;-68
2022/06/28 05:09:35;;;;;;;7.80;4.50;;;;;;;13.41;91.41;102120.22;5029206;28;20021;-67
2022/06/28 05:12:00;;;;;;;8.13;4.55;;;;;;;13.48;91.20;102117.66;5029151;28;20682;-67
2022/06/28 05:14:26;;;;;;;8.90;5.05;;;;;;;13.49;91.43;102120.16;5028261;28;20029;-67
2022/06/28 05:16:52;;;;;;;5.65;3.70;;;;;;;13.48;91.73;102121.16;5029069;28;20033;-67
2022/06/28 05:19:17;;;;;;;10.30;4.47;;;;;;;13.52;91.17;102121.66;5028655;28;20048;-67
2022/06/28 05:21:43;;;;;;;9.00;4.97;;;;;;;13.78;89.98;102118.47;5029163;28;20052;-68
2022/06/28 05:24:08;;;;;;;8.55;4.88;;;;;;;13.90;89.57;102118.81;5028520;28;20037;-68
2022/06/28 05:26:33;;;;;;;8.23;4.72;;;;;;;13.93;89.23;102119.28;5029035;28;20484;-68
2022/06/28 05:28:59;;;;;;;7.95;4.07;;;;;;;13.90;89.71;102110.78;5028320;28;20026;-68
2022/06/28 05:31:25;;;;;;;7.38;3.80;;;;;;;13.84;89.46;102109.69;5028588;28;20034;-68
2022/06/28 05:33:50;;;;;;;8.95;4.22;;;;;;;13.82;89.41;102109.84;5029004;28;20041;-68
2022/06/28 05:36:15;;;;;;;10.18;4.65;;;;;;;13.86;89.88;102114.84;5028950;28;20113;-68
2022/06/28 05:38:41;;;;;;;8.27;4.70;;;;;;;13.90;89.21;102113.47;5028916;28;20073;-68
2022/06/28 05:41:06;;;;;;;10.40;4.90;;;;;;;13.94;88.79;102118.28;5028255;28;20053;-68
2022/06/28 05:43:31;;;;;;;6.53;3.97;;;;;;;14.03;89.02;102108.25;5028571;28;20044;-68
2022/06/28 05:45:57;;;;;;;7.15;4.32;;;;;;;14.04;89.17;102101.84;5028879;28;20029;-68
2022/06/28 05:48:22;;;;;;;9.57;4.18;;;;;;;14.02;89.80;102110.13;5028829;28;20081;-68
2022/06/28 05:50:47;;;;;;;10.05;4.90;;;;;;;14.05;90.16;102108.91;5028971;28;20034;-68
2022/06/28 05:53:13;;;;;;;8.82;4.97;;;;;;;14.00;90.00;102101.41;5028691;28;20065;-67
2022/06/28 05:55:39;;;;;;;8.40;4.05;;;;;;;14.08;90.28;102105.84;5028740;28;20043;-67
2022/06/28 05:58:05;;;;;;;10.05;4.45;;;;;;;14.10;89.79;102094.94;5028877;28;20034;-68
2022/06/28 06:00:30;;;;;;;13.70;4.28;;;;;;;14.18;89.65;102097.50;5028601;28;20076;-67
2022/06/28 06:02:55;;;;;;;9.00;4.05;;;;;;;14.31;88.47;102094.13;5028813;28;20029;-64
2022/06/28 06:05:21;;;;;;;7.18;5.07;;;;;;;14.82;87.47;102102.88;5028835;28;20095;-64
2022/06/28 06:07:46;;;;;;;10.95;4.95;;;;;;;15.23;84.12;102093.25;5028823;28;20025;-64
2022/06/28 06:10:12;;;;;;;8.45;4.72;;;;;;;15.30;83.11;102097.66;5028458;28;20040;-64
2022/06/28 06:12:37;;;;;;;7.97;3.78;;;;;;;15.10;83.83;102105.56;5028588;28;20034;-64
2022/06/28 06:15:03;;;;;;;9.32;4.63;;;;;;;14.98;85.45;102111.69;5028547;28;20120;-64
2022/06/28 06:17:28;;;;;;;9.93;3.95;;;;;;;14.82;84.32;102105.56;5028770;28;20029;-64
2022/06/28 06:19:53;;;;;;;10.38;3.75;;;;;;;14.78;85.02;102106.16;5028666;28;20531;-64
2022/06/28 06:22:19;;;;;;;12.88;5.05;;;;;;;14.74;84.93;102115.63;5028630;28;20571;-64
2022/06/28 06:24:44;;;;;;;8.43;3.63;;;;;;;14.67;84.77;102105.66;5028103;28;20400;-64
2022/06/28 06:27:09;;;;;;;8.85;4.78;;;;;;;14.72;85.82;102112.28;5030531;28;20045;-65
2022/06/28 06:29:35;;;;;;;11.93;4.80;;;;;;;14.78;86.61;102119.59;5031682;28;20400;-64
2022/06/28 06:32:01;;;;;;;9.90;4.05;;;;;;;14.79;86.26;102113.19;5031835;28;20467;-64
2022/06/28 06:34:26;;;;;;;10.05;3.63;;;;;;;14.85;86.10;102123.16;5030567;28;20030;-64
2022/06/28 06:36:52;;;;;;;8.70;3.90;;;;;;;14.86;85.33;102122.97;5031984;28;20029;-65
2022/06/28 06:39:17;;;;;;;6.55;3.63;;;;;;;14.89;85.48;102119.88;5031953;28;20029;-64
2022/06/28 06:41:43;;;;;;;6.53;3.20;;;;;;;14.92;85.21;102121.34;5031514;28;20358;-64
2022/06/28 06:44:09;;;;;;;9.07;4.00;;;;;;;14.94;84.90;102121.16;5031201;28;20091;-64
2022/06/28 06:46:36;;;;;;;13.48;4.28;;;;;;;14.96;84.43;102119.09;5031531;28;20037;-64
2022/06/28 06:49:01;;;;;;;9.68;4.28;;;;;;;15.00;85.12;102120.38;5031497;28;20052;-64
2022/06/28 06:51:27;;;;;;;7.35;3.13;;;;;;;15.03;85.91;102126.19;5031538;28;20029;-65
2022/06/28 06:53:52;;;;;;;12.10;4.97;;;;;;;15.05;83.91;102128.69;5031486;28;20088;-64
2022/06/28 06:56:17;;;;;;;10.77;4.45;;;;;;;15.07;81.73;102132.84;5031513;28;20029;-64
2022/06/28 06:58:43;;;;;;;10.23;4.18;;;;;;;15.11;82.94;102136.78;5031278;28;20040;-66
2022/06/28 07:01:09;;;;;;;12.40;4.43;;;;;;;15.17;84.29;102124.44;5031388;28;20091;-64
2022/06/28 07:03:35;;;;;;;8.60;3.20;;;;;;;15.21;85.95;102131.06;5031566;28;20492;-65
2022/06/28 07:06:01;;;;;;;8.60;4.05;;;;;;;15.27;82.47;102138.38;5031483;28;20113;-64
2022/06/28 07:08:26;;;;;;;9.38;3.65;;;;;;;15.34;80.36;102141.09;5031449;28;20120;-64
2022/06/28 07:10:51;;;;;;;11.55;3.83;;;;;;;15.38;80.32;102139.69;5031241;28;20042;-64
2022/06/28 07:13:17;;;;;;;8.77;3.75;;;;;;;15.45;84.71;102134.34;5031225;28;20033;-64
2022/06/28 07:15:42;;;;;;;11.35;4.22;;;;;;;15.50;82.63;102137.25;5030606;28;20029;-64
2022/06/28 07:18:08;;;;;;;6.25;3.40;;;;;;;15.60;81.40;102139.59;5031247;28;20370;-65
2022/06/28 07:20:33;;;;;;;11.23;3.42;;;;;;;15.59;79.27;102130.72;5029656;28;20025;-65
2022/06/28 07:22:58;;;;;;;11.32;3.50;;;;;;;15.64;80.30;102138.16;5031120;28;20037;-64
2022/06/28 07:25:24;;;;;;;11.63;3.10;;;;;;;15.70;78.42;102137.41;5030956;28;20033;-64
2022/06/28 07:27:50;;;;;;;7.88;3.50;;;;;;;15.74;75.88;102138.66;5030518;28;20025;-65
2022/06/28 07:30:15;;;;;;;9.00;3.40;;;;;;;15.80;79.68;102145.09;5030824;28;20029;-64
2022/06/28 07:32:40;;;;;;;9.55;3.40;;;;;;;15.88;78.70;102140.41;5030869;28;20034;-65
2022/06/28 07:35:07;;;;;;;6.88;2.60;;;;;;;15.93;76.21;102132.56;5030861;28;20120;-65
2022/06/28 07:37:32;;;;;;;8.95;3.50;;;;;;;15.97;75.26;102144.56;5030335;28;20025;-64
2022/06/28 07:39:57;;;;;;;6.10;2.22;;;;;;;16.05;71.82;102142.75;5030438;28;20153;-65
2022/06/28 07:42:23;;;;;;;3.28;1.20;;;;;;;16.07;70.42;102141.50;5030657;28;20412;-65
2022/06/28 07:44:48;;;;;;;7.35;1.95;;;;;;;16.08;69.58;102142.34;5030282;28;20042;-65
2022/06/28 07:47:14;;;;;;;4.70;1.27;;;;;;;16.11;70.78;102145.47;5030191;28;20030;-65
2022/06/28 07:52:36;;;;;;;6.75;2.05;;;;;;;16.21;69.89;102140.50;5030832;28;20499;-66
2022/06/28 07:55:04;;;;;;;4.85;2.25;;;;;;;16.29;73.27;102134.13;5029253;28;20459;-65
2022/06/28 07:57:29;;;;;;;5.13;1.98;;;;;;;16.39;71.11;102142.63;5030438;28;20041;-66
2022/06/28 07:59:54;;;;;;;4.40;1.58;;;;;;;16.48;70.29;102146.00;5030153;28;20071;-66
2022/06/28 08:02:20;;;;;;;7.95;1.85;;;;;;;16.68;70.60;102139.78;5030331;28;20040;-66
2022/06/28 08:04:46;;;;;;;6.20;1.48;;;;;;;16.78;68.68;102132.16;5027847;28;20030;-65
2022/06/28 08:07:11;;;;;;;3.42;1.40;;;;;;;16.85;67.09;102128.44;5025762;28;20043;-66
2022/06/28 08:09:37;;;;;;;2.95;1.20;;;;;;;17.14;66.81;102118.28;5025836;28;20019;-66
2022/06/28 08:12:02;;;;;;;4.97;1.88;;;;;;;18.37;62.63;102126.34;5025738;28;20029;-65
2022/06/28 08:14:29;;;;;;;6.32;1.83;;;;;;;20.42;57.32;102119.06;5026006;28;20037;-65
2022/06/28 08:16:54;;;;;;;4.93;1.38;;;;;;;22.23;53.90;102120.16;5025941;28;20383;-65
2022/06/28 08:19:20;;;;;;;6.10;2.08;;;;;;;24.41;48.30;102126.19;5024606;28;20096;-65
2022/06/28 08:21:47;;;;;;;3.75;1.33;;;;;;;25.66;44.21;102119.44;5025564;28;20025;-65
2022/06/28 08:24:13;;;;;;;4.55;2.28;;;;;;;26.50;41.49;102112.00;5025720;28;20064;-65
2022/06/28 08:26:42;;;;;;;9.68;1.65;;;;;;;27.76;39.20;102113.94;5026326;28;20061;-65
2022/06/28 08:29:08;;;;;;;2.78;1.25;;;;;;;28.92;37.39;102113.38;5028939;28;20079;-66
2022/06/28 08:31:33;;;;;;;3.22;1.65;;;;;;;29.85;35.20;102108.47;5029655;28;20404;-66
2022/06/28 08:33:58;;;;;;;3.00;1.00;;;;;;;30.27;32.38;102112.25;5029912;28;20033;-66
2022/06/28 08:36:24;;;;;;;9.38;2.40;;;;;;;30.50;33.79;102102.25;5029698;28;20032;-66
2022/06/28 08:38:49;;;;;;;2.70;1.50;;;;;;;30.96;31.41;102090.41;5029763;28;20072;-66
2022/06/28 08:41:14;;;;;;;2.30;1.17;;;;;;;31.69;30.40;102095.31;5029707;28;20373;-66
2022/06/28 08:43:41;;;;;;;9.45;1.63;;;;;;;31.65;28.64;102101.44;5029677;28;20392;-66
2022/06/28 08:46:08;;;;;;;6.03;1.13;;;;;;;32.03;28.22;102092.88;5029383;28;20045;-66
2022/06/28 08:48:42;;;;;;;5.65;1.67;;;;;;;32.45;30.88;102090.72;5028154;28;20703;-66
2022/06/28 08:51:09;;;;;;;3.13;1.15;;;;;;;32.45;27.82;102079.69;5029084;28;20029;-66
2022/06/28 08:53:36;;;;;;;5.57;1.33;;;;;;;32.42;27.15;102085.84;5029285;28;20460;-66
2022/06/28 08:56:02;;;;;;;3.70;1.77;;;;;;;32.43;27.55;102072.84;5029332;28;20358;-66
2022/06/28 08:58:28;;;;;;;9.25;1.10;;;;;;;32.34;27.62;102083.03;5029229;28;20045;-66
2022/06/28 09:00:54;;;;;;;3.75;1.17;;;;;;;32.07;27.27;102074.56;5029326;28;20030;-66
2022/06/28 09:03:19;;;;;;;4.20;1.88;;;;;;;32.20;29.18;102077.56;5028824;28;20033;-66
2022/06/28 09:05:46;;;;;;;0.90;0.70;;;;;;;32.29;29.32;102078.44;5029381;28;20063;-66
2022/06/28 09:08:11;;;;;;;3.42;0.93;;;;;;;31.87;29.76;102080.53;5029191;28;20481;-66
2022/06/28 09:10:37;;;;;;;2.70;1.10;;;;;;;29.79;31.25;102078.56;5029082;28;20040;-66
2022/06/28 09:13:13;;;;;;;2.47;0.82;;;;;;;27.51;35.80;102077.31;5029187;28;20484;-66
2022/06/28 09:15:48;;;;;;;3.38;0.90;;;;;;;25.85;37.17;102067.06;5029193;28;20068;-66
2022/06/28 09:18:14;;;;;;;1.88;0.68;;;;;;;24.86;38.19;102070.41;5029236;28;20068;-65
2022/06/28 09:20:40;;;;;;;2.45;0.88;;;;;;;23.97;39.10;102065.53;5028997;28;20154;-65
2022/06/28 09:23:28;;;;;;;4.85;1.25;;;;;;;23.41;42.94;102063.78;5029057;28;20762;-65
2022/06/28 09:25:57;;;;;;;5.53;1.88;;;;;;;22.73;42.09;102057.63;5029198;28;20049;-66
2022/06/28 09:28:28;;;;;;;4.53;1.20;;;;;;;22.31;43.25;102063.47;5029257;28;20029;-65
2022/06/28 09:31:20;;;;;;;6.38;0.90;;;;;;;22.15;46.10;102061.56;5028849;28;20079;-70
2022/06/28 09:34:07;;;;;;;3.53;1.38;;;;;;;21.93;45.49;102057.88;5029076;28;20061;-70
2022/06/28 09:36:36;;;;;;;1.73;1.42;;;;;;;21.77;46.44;102060.31;5028708;28;20099;-70
2022/06/28 09:39:13;;;;;;;2.88;0.90;;;;;;;21.70;47.70;102059.63;5028974;28;20131;-71
2022/06/28 09:41:43;;;;;;;1.60;0.90;;;;;;;21.59;48.09;102055.06;5028972;28;20109;-70
2022/06/28 09:44:08;;;;;;;3.00;1.05;;;;;;;21.46;46.13;102053.44;5028906;28;20033;-70
2022/06/28 09:46:34;;;;;;;2.95;1.25;;;;;;;21.20;47.30;102049.34;5028783;28;20103;-70
2022/06/28 09:49:05;;;;;;;3.03;1.00;;;;;;;21.10;47.67;102046.41;5028191;28;20045;-70
2022/06/28 09:51:32;;;;;;;3.05;1.65;;;;;;;21.08;49.54;102043.09;5028294;28;20468;-70
2022/06/28 09:54:02;;;;;;;4.97;1.27;;;;;;;21.07;48.38;102039.56;5028639;28;20064;-70
2022/06/28 09:56:31;;;;;;;3.00;1.38;;;;;;;21.07;51.57;102022.47;5028820;28;20053;-70
2022/06/28 09:58:57;;;;;;;1.80;0.82;;;;;;;21.18;48.05;102036.00;5028600;28;20176;-69
2022/06/28 10:01:23;;;;;;;1.10;0.90;;;;;;;21.16;49.57;102042.72;5031671;28;20544;-70
2022/06/28 10:03:49;;;;;;;3.20;1.10;;;;;;;21.16;49.33;102026.44;5032558;28;20120;-69
2022/06/28 10:06:17;;;;;;;4.78;1.40;;;;;;;21.16;48.19;102032.69;5032571;28;20022;-70
2022/06/28 10:08:43;;;;;;;2.13;1.00;;;;;;;21.13;48.41;102029.66;5032335;28;20025;-70
2022/06/28 10:11:10;;;;;;;4.13;1.17;;;;;;;21.24;51.19;102029.63;5032376;28;20044;-72
2022/06/28 10:16:47;;;;;;;2.17;1.40;;;;;;;21.65;53.09;102025.03;5032806;28;20523;-70
2022/06/28 10:19:17;;;;;;;3.33;1.25;;;;;;;21.73;49.12;102021.13;5027649;28;20083;-70
2022/06/28 10:22:07;;;;;;;2.78;1.20;;;;;;;21.74;49.17;102028.19;5031977;28;20119;-70
2022/06/28 10:24:56;;;;;;;4.55;1.20;;;;;;;21.81;52.61;102019.91;5032292;28;20033;-70
2022/06/28 10:27:23;;;;;;;4.18;1.50;;;;;;;21.78;46.81;102013.06;5032302;28;20021;-70
2022/06/28 10:29:58;;;;;;;2.95;1.20;;;;;;;21.76;49.91;102017.09;5030620;28;20381;-70
2022/06/28 10:32:39;;;;;;;3.80;1.95;;;;;;;21.92;52.51;102005.44;5031743;28;20033;-70
2022/06/28 10:35:05;;;;;;;4.32;1.70;;;;;;;21.98;49.86;101998.19;5031895;28;20033;-70
2022/06/28 10:37:31;;;;;;;3.17;1.17;;;;;;;21.84;49.53;102001.22;5031929;28;20034;-69
2022/06/28 10:40:24;;;;;;;1.50;1.00;;;;;;;21.96;52.43;102006.59;5031587;28;20033;-70
2022/06/28 10:42:53;;;;;;;3.75;1.88;;;;;;;22.08;50.31;102001.09;5031974;28;20447;-70
2022/06/28 10:45:23;;;;;;;4.97;1.73;;;;;;;22.22;50.72;101986.16;5031381;28;20080;-69
2022/06/28 10:48:07;;;;;;;4.55;2.20;;;;;;;21.89;50.33;101986.91;5031559;28;20025;-69
2022/06/28 10:50:59;;;;;;;1.55;0.98;;;;;;;21.64;50.23;101988.13;5031128;28;20037;-69
2022/06/28 10:53:32;;;;;;;4.53;1.85;;;;;;;21.86;50.37;101984.69;5031048;28;20048;-69
2022/06/28 10:56:13;;;;;;;5.88;1.10;;;;;;;22.16;52.11;101983.56;5031595;28;20033;-70
2022/06/28 10:58:55;;;;;;;5.05;1.52;;;;;;;22.27;50.09;101980.81;5031462;28;20072;-70
2022/06/28 11:01:39;;;;;;;5.38;1.83;;;;;;;22.41;49.93;101975.84;5031539;28;20025;-70
2022/06/28 11:04:25;;;;;;;2.17;1.13;;;;;;;22.56;50.16;101966.25;5031617;28;20017;-70
2022/06/28 11:07:04;;;;;;;5.60;1.55;;;;;;;22.65;47.28;101971.03;5031405;28;20025;-70
2022/06/28 11:09:47;;;;;;;5.10;1.30;;;;;;;22.72;49.57;101963.53;5031465;28;20891;-70
2022/06/28 11:12:17;;;;;;;5.05;1.25;;;;;;;22.82;47.76;101968.28;5030586;28;20043;-70
2022/06/28 11:14:56;;;;;;;5.07;1.73;;;;;;;22.96;48.17;101963.28;5031393;28;20091;-70
2022/06/28 11:17:43;;;;;;;3.03;1.63;;;;;;;23.18;50.55;101955.97;5030677;28;20035;-72
2022/06/28 11:20:12;;;;;;;1.73;1.23;;;;;;;23.25;49.90;101952.25;5030853;28;20045;-70
2022/06/28 11:22:47;;;;;;;6.60;2.40;;;;;;;23.12;48.56;101937.13;5031203;28;20032;-70
2022/06/28 11:25:16;;;;;;;3.33;1.17;;;;;;;22.95;48.58;101948.88;5031074;28;20123;-70
2022/06/28 11:27:52;;;;;;;3.97;1.75;;;;;;;23.07;47.61;101946.03;5030923;28;20025;-70
2022/06/28 11:30:20;;;;;;;1.35;1.10;;;;;;;23.20;49.92;101944.84;5030900;28;20124;-70
2022/06/28 11:32:50;;;;;;;1.48;1.17;;;;;;;23.26;47.33;101945.72;5030992;28;20025;-70
2022/06/28 11:35:24;;;;;;;4.10;1.63;;;;;;;23.16;45.73;101939.09;5030881;28;20540;-70